Time;durP1;ratioP1;P1;durP2;ratioP2;P2;SDS_P1;SDS_P2;PMS_P1;PMS_P2;Temp;Humidity;BMP_temperature;BMP_pressure;BME280_temperature;BME280_humidity;BME280_pressure;Samples;Min_cycle;Max_cycle;Signal;HPM_P1;HPM_P2
2022/11/18 00:00:57;;;;;;;9.65;2.75;;;;;;;;;;4995203;28;20402;-26
2022/11/18 00:03:23;;;;;;;9.50;2.70;;;;;;;;;;4995534;28;20042;-26
2022/11/18 00:05:53;;;;;;;19.55;3.42;;;;;;;;;;4995501;28;20022;-26
2022/11/18 00:08:19;;;;;;;8.20;2.97;;;;;;;;;;4994290;28;20100;-26
2022/11/18 00:10:46;;;;;;;12.75;2.50;;;;;;;;;;4996186;28;20112;-25
2022/11/18 00:16:01;;;;;;;7.45;2.47;;;;;;;;;;4995715;28;20109;-26
2022/11/18 00:18:27;;;;;;;11.57;2.75;;;;;;;;;;4995147;28;20030;-26
2022/11/18 00:20:53;;;;;;;10.45;2.50;;;;;;;;;;4994944;28;20061;-26
2022/11/18 00:23:19;;;;;;;6.82;2.45;;;;;;;;;;4995102;28;20022;-25
2022/11/18 00:25:46;;;;;;;13.23;2.40;;;;;;;;;;4995328;28;20481;-26
2022/11/18 00:28:12;;;;;;;14.40;3.90;;;;;;;;;;4995508;28;20045;-26
2022/11/18 00:30:38;;;;;;;6.50;2.28;;;;;;;;;;4994965;28;20049;-26
2022/11/18 00:33:04;;;;;;;16.27;2.72;;;;;;;;;;4994924;28;20465;-26
2022/11/18 00:35:30;;;;;;;6.63;2.45;;;;;;;;;;4994966;28;20038;-26
2022/11/18 00:37:56;;;;;;;12.57;2.72;;;;;;;;;;4995196;28;20038;-25
2022/11/18 00:40:22;;;;;;;9.40;2.88;;;;;;;;;;4994796;28;20034;-26
2022/11/18 00:42:52;;;;;;;7.22;2.03;;;;;;;;;;4995038;28;20030;-26
2022/11/18 00:45:21;;;;;;;8.52;2.35;;;;;;;;;;4995156;28;20342;-26
2022/11/18 00:47:48;;;;;;;4.97;2.20;;;;;;;;;;4995173;28;20414;-27
2022/11/18 00:50:14;;;;;;;7.82;1.92;;;;;;;;;;4994841;28;20041;-27
2022/11/18 00:52:41;;;;;;;5.72;2.47;;;;;;;;;;4994718;28;20097;-26
2022/11/18 00:55:07;;;;;;;10.77;3.15;;;;;;;;;;4995548;28;20058;-26
2022/11/18 00:57:33;;;;;;;9.65;2.30;;;;;;;;;;4995037;28;20053;-26
2022/11/18 00:59:59;;;;;;;11.50;2.28;;;;;;;;;;4995208;28;20026;-26
2022/11/18 01:02:25;;;;;;;6.30;2.22;;;;;;;;;;4997383;28;20035;-26
2022/11/18 01:04:51;;;;;;;9.32;3.38;;;;;;;;;;4998592;28;20102;-26
2022/11/18 01:07:18;;;;;;;4.70;2.17;;;;;;;;;;4998303;28;20450;-26
2022/11/18 01:09:44;;;;;;;6.38;2.40;;;;;;;;;;4998467;28;20038;-26
2022/11/18 01:14:55;;;;;;;6.57;2.53;;;;;;;;;;4998498;28;20524;-26
2022/11/18 01:17:21;;;;;;;12.57;2.78;;;;;;;;;;4997142;28;20389;-26
2022/11/18 01:19:47;;;;;;;6.97;2.28;;;;;;;;;;4998235;28;20089;-26
2022/11/18 01:22:13;;;;;;;13.00;2.90;;;;;;;;;;4997945;28;20030;-26
2022/11/18 01:24:39;;;;;;;7.32;2.40;;;;;;;;;;4998208;28;20018;-27
2022/11/18 01:27:06;;;;;;;4.93;2.35;;;;;;;;;;4997874;28;20018;-26
2022/11/18 01:29:32;;;;;;;10.40;2.90;;;;;;;;;;4998369;28;20030;-26
2022/11/18 01:31:58;;;;;;;5.75;2.33;;;;;;;;;;4997727;28;20121;-26
2022/11/18 01:34:24;;;;;;;8.73;2.13;;;;;;;;;;4997757;28;20096;-26
2022/11/18 01:36:52;;;;;;;14.20;3.33;;;;;;;;;;4997989;28;20026;-26
2022/11/18 01:39:18;;;;;;;12.85;2.70;;;;;;;;;;4997573;28;20096;-26
2022/11/18 01:41:44;;;;;;;12.05;2.75;;;;;;;;;;4997846;28;20042;-26
2022/11/18 01:44:28;;;;;;;14.98;2.80;;;;;;;;;;4997600;28;20416;-26
2022/11/18 01:46:55;;;;;;;11.68;2.50;;;;;;;;;;4997776;28;20042;-26
2022/11/18 01:49:21;;;;;;;6.05;2.75;;;;;;;;;;4997507;28;20412;-26
2022/11/18 01:51:49;;;;;;;6.55;2.17;;;;;;;;;;4997316;28;20026;-26
2022/11/18 01:54:18;;;;;;;11.80;2.60;;;;;;;;;;4997654;28;20042;-26
2022/11/18 01:56:46;;;;;;;7.78;2.30;;;;;;;;;;4997334;28;20054;-26
2022/11/18 01:59:14;;;;;;;13.50;2.78;;;;;;;;;;4997172;28;20058;-26
2022/11/18 02:01:40;;;;;;;10.43;2.15;;;;;;;;;;4997510;28;20161;-26
2022/11/18 02:04:07;;;;;;;10.50;3.67;;;;;;;;;;4997000;28;20046;-26
2022/11/18 02:06:33;;;;;;;13.15;4.40;;;;;;;;;;4996245;28;20027;-26
2022/11/18 02:09:00;;;;;;;7.35;2.92;;;;;;;;;;4997856;28;20027;-26
2022/11/18 02:14:11;;;;;;;8.43;2.17;;;;;;;;;;4996185;28;20060;-25
2022/11/18 02:16:37;;;;;;;7.60;3.63;;;;;;;;;;4996962;28;20088;-29
2022/11/18 02:19:12;;;;;;;8.88;2.80;;;;;;;;;;4997372;28;20069;-26
2022/11/18 02:21:56;;;;;;;8.90;2.95;;;;;;;;;;4997208;28;20026;-25
2022/11/18 02:24:38;;;;;;;13.82;2.53;;;;;;;;;;4997112;28;20046;-26
2022/11/18 02:27:23;;;;;;;8.38;2.33;;;;;;;;;;4996840;28;20018;-26
2022/11/18 02:30:08;;;;;;;7.90;3.00;;;;;;;;;;4996719;28;20046;-26
2022/11/18 02:32:35;;;;;;;6.53;2.50;;;;;;;;;;4996960;28;20030;-26
2022/11/18 02:35:05;;;;;;;7.18;2.67;;;;;;;;;;4996958;28;20062;-26
2022/11/18 02:37:35;;;;;;;4.63;2.50;;;;;;;;;;4996901;28;20105;-25
2022/11/18 02:40:05;;;;;;;6.43;2.55;;;;;;;;;;4996469;28;20065;-25
2022/11/18 02:42:33;;;;;;;7.07;2.63;;;;;;;;;;4996761;28;20118;-25
2022/11/18 02:45:03;;;;;;;6.55;3.03;;;;;;;;;;4996501;28;20026;-26
2022/11/18 02:47:31;;;;;;;10.57;2.70;;;;;;;;;;4996413;28;20030;-26
2022/11/18 02:49:59;;;;;;;5.60;2.25;;;;;;;;;;4996608;28;20040;-27
2022/11/18 02:52:26;;;;;;;8.20;2.75;;;;;;;;;;4996282;28;20088;-26
2022/11/18 02:54:54;;;;;;;10.23;2.35;;;;;;;;;;4996508;28;20390;-26
2022/11/18 02:57:21;;;;;;;7.88;2.40;;;;;;;;;;4996233;28;20037;-27
2022/11/18 02:59:47;;;;;;;5.47;2.20;;;;;;;;;;4996053;28;20042;-26
2022/11/18 03:02:17;;;;;;;13.20;2.65;;;;;;;;;;4995848;28;20026;-26
2022/11/18 03:04:46;;;;;;;4.63;2.03;;;;;;;;;;4996386;28;20046;-26
2022/11/18 03:07:20;;;;;;;7.47;2.85;;;;;;;;;;4996310;28;20038;-26
2022/11/18 03:09:47;;;;;;;4.90;2.60;;;;;;;;;;4996244;28;20053;-27
2022/11/18 03:12:19;;;;;;;8.48;2.20;;;;;;;;;;4995912;28;20088;-26
2022/11/18 03:15:03;;;;;;;7.50;2.20;;;;;;;;;;4995916;28;20034;-26
2022/11/18 03:17:41;;;;;;;6.85;2.53;;;;;;;;;;4996120;28;20034;-26
2022/11/18 03:20:17;;;;;;;8.00;2.22;;;;;;;;;;4995764;28;20023;-26
2022/11/18 03:22:59;;;;;;;6.70;1.92;;;;;;;;;;4995691;28;20042;-26
2022/11/18 03:25:33;;;;;;;9.23;2.70;;;;;;;;;;4995581;28;20488;-26
2022/11/18 03:28:09;;;;;;;6.95;2.17;;;;;;;;;;4996026;28;20033;-26
2022/11/18 03:30:36;;;;;;;9.90;2.95;;;;;;;;;;4995874;28;20065;-25
2022/11/18 03:33:05;;;;;;;6.55;2.53;;;;;;;;;;4995553;28;20082;-26
2022/11/18 03:35:33;;;;;;;8.60;2.05;;;;;;;;;;4995259;28;20077;-26
2022/11/18 03:38:02;;;;;;;6.65;1.95;;;;;;;;;;4995797;28;20105;-25
2022/11/18 03:40:31;;;;;;;6.10;2.17;;;;;;;;;;4995439;28;20365;-26
2022/11/18 03:43:06;;;;;;;8.13;2.03;;;;;;;;;;4995411;28;20042;-25
2022/11/18 03:45:37;;;;;;;4.40;1.85;;;;;;;;;;4995398;28;20466;-26
2022/11/18 03:48:09;;;;;;;5.10;2.45;;;;;;;;;;4995720;28;20060;-26
2022/11/18 03:50:40;;;;;;;8.23;2.45;;;;;;;;;;4995675;28;20030;-26
2022/11/18 03:53:07;;;;;;;4.63;1.58;;;;;;;;;;4995613;28;20030;-25
2022/11/18 03:55:36;;;;;;;5.95;1.77;;;;;;;;;;4995292;28;20465;-25
2022/11/18 03:58:21;;;;;;;5.10;2.90;;;;;;;;;;4995291;28;20034;-26
2022/11/18 04:00:49;;;;;;;5.03;2.13;;;;;;;;;;4995194;28;20343;-25
2022/11/18 04:03:15;;;;;;;5.78;2.80;;;;;;;;;;4994066;28;20057;-26
2022/11/18 04:05:43;;;;;;;7.47;2.38;;;;;;;;;;4995227;28;20041;-26
2022/11/18 04:08:19;;;;;;;6.78;2.80;;;;;;;;;;4995221;28;20022;-26
2022/11/18 04:10:50;;;;;;;6.20;2.55;;;;;;;;;;4995146;28;20108;-25
2022/11/18 04:13:22;;;;;;;5.50;2.38;;;;;;;;;;4995378;28;20097;-26
2022/11/18 04:15:48;;;;;;;3.83;1.85;;;;;;;;;;4995404;28;20082;-26
2022/11/18 04:18:14;;;;;;;4.93;1.80;;;;;;;;;;4995152;28;20362;-26
2022/11/18 04:20:40;;;;;;;6.00;2.95;;;;;;;;;;4995037;28;20041;-27
2022/11/18 04:23:07;;;;;;;4.50;2.00;;;;;;;;;;4995211;28;20072;-27
2022/11/18 04:25:33;;;;;;;4.40;2.40;;;;;;;;;;4994197;28;20031;-26
2022/11/18 04:27:59;;;;;;;7.78;2.22;;;;;;;;;;4995353;28;20358;-26
2022/11/18 04:30:25;;;;;;;6.22;2.35;;;;;;;;;;4995042;28;20365;-26
2022/11/18 04:32:51;;;;;;;5.57;2.67;;;;;;;;;;4995061;28;20093;-26
2022/11/18 04:35:18;;;;;;;5.45;2.95;;;;;;;;;;4994898;28;20445;-26
2022/11/18 04:37:44;;;;;;;6.47;2.63;;;;;;;;;;4998530;28;20081;-25
2022/11/18 04:40:11;;;;;;;5.70;2.47;;;;;;;;;;4998724;28;20073;-27
2022/11/18 04:42:37;;;;;;;4.03;1.92;;;;;;;;;;4997698;28;20027;-27
2022/11/18 04:45:03;;;;;;;3.10;1.90;;;;;;;;;;4998632;28;20034;-27
2022/11/18 04:47:30;;;;;;;8.70;2.03;;;;;;;;;;4998866;28;20114;-25
2022/11/18 04:49:56;;;;;;;5.50;2.28;;;;;;;;;;4998602;28;20022;-24
2022/11/18 04:52:22;;;;;;;4.47;2.28;;;;;;;;;;4998950;28;20026;-24
2022/11/18 04:54:48;;;;;;;5.30;2.30;;;;;;;;;;4998748;28;20037;-25
2022/11/18 04:57:14;;;;;;;5.22;2.08;;;;;;;;;;4998692;28;20030;-25
2022/11/18 04:59:41;;;;;;;4.47;1.98;;;;;;;;;;4998285;28;20096;-25
2022/11/18 05:02:07;;;;;;;9.48;2.45;;;;;;;;;;4998267;28;20173;-26
2022/11/18 05:04:34;;;;;;;5.07;2.03;;;;;;;;;;4998499;28;20350;-25
2022/11/18 05:07:01;;;;;;;7.57;2.53;;;;;;;;;;4998340;28;20033;-25
2022/11/18 05:09:27;;;;;;;8.98;2.97;;;;;;;;;;4998051;28;20058;-25
2022/11/18 05:14:39;;;;;;;4.43;1.67;;;;;;;;;;4998358;28;20370;-25
2022/11/18 05:17:07;;;;;;;5.47;2.25;;;;;;;;;;4998014;28;20039;-26
2022/11/18 05:19:33;;;;;;;7.45;2.10;;;;;;;;;;4998380;28;20037;-25
2022/11/18 05:21:59;;;;;;;7.10;2.33;;;;;;;;;;4997872;28;20033;-26
2022/11/18 05:24:26;;;;;;;10.10;2.60;;;;;;;;;;4996891;28;20061;-25
2022/11/18 05:26:53;;;;;;;3.67;1.67;;;;;;;;;;4998089;28;20041;-25
2022/11/18 05:29:19;;;;;;;3.90;2.22;;;;;;;;;;4998094;28;20357;-26
2022/11/18 05:31:46;;;;;;;7.22;2.20;;;;;;;;;;4997863;28;20030;-26
2022/11/18 05:34:13;;;;;;;5.45;2.55;;;;;;;;;;4998240;28;20026;-25
2022/11/18 05:36:39;;;;;;;4.05;2.03;;;;;;;;;;4997622;28;20438;-26
2022/11/18 05:39:06;;;;;;;8.63;2.50;;;;;;;;;;4997835;28;20081;-26
2022/11/18 05:44:17;;;;;;;6.13;2.85;;;;;;;;;;4997585;28;20041;-25
2022/11/18 05:46:43;;;;;;;5.70;2.33;;;;;;;;;;4997445;28;20022;-26
2022/11/18 05:49:09;;;;;;;6.82;2.20;;;;;;;;;;4997455;28;20034;-26
2022/11/18 05:51:35;;;;;;;5.20;2.15;;;;;;;;;;4997426;28;20049;-25
2022/11/18 05:54:07;;;;;;;4.50;1.92;;;;;;;;;;4996385;28;20393;-25
2022/11/18 05:56:38;;;;;;;8.75;3.70;;;;;;;;;;4997320;28;20040;-25
2022/11/18 05:59:04;;;;;;;6.00;2.60;;;;;;;;;;4997499;28;20029;-26
2022/11/18 06:01:31;;;;;;;5.65;2.13;;;;;;;;;;4997261;28;20027;-25
2022/11/18 06:03:57;;;;;;;5.03;2.10;;;;;;;;;;4996973;28;20101;-25
2022/11/18 06:06:24;;;;;;;9.15;2.20;;;;;;;;;;4997087;28;20541;-25
2022/11/18 06:08:58;;;;;;;10.00;2.95;;;;;;;;;;4997292;28;20397;-25
2022/11/18 06:11:24;;;;;;;7.82;2.13;;;;;;;;;;4996978;28;20457;-25
2022/11/18 06:13:54;;;;;;;3.95;2.10;;;;;;;;;;4996953;28;20038;-25
2022/11/18 06:16:22;;;;;;;7.85;2.33;;;;;;;;;;4997322;28;20088;-26
2022/11/18 06:18:49;;;;;;;4.70;2.70;;;;;;;;;;4996993;28;20461;-26
2022/11/18 06:21:15;;;;;;;5.03;2.30;;;;;;;;;;4997037;28;20069;-26
2022/11/18 06:23:42;;;;;;;4.68;2.15;;;;;;;;;;4996948;28;20026;-26
2022/11/18 06:26:10;;;;;;;3.78;2.42;;;;;;;;;;4997222;28;20033;-25
2022/11/18 06:28:37;;;;;;;5.05;1.85;;;;;;;;;;4996714;28;20105;-25
2022/11/18 06:31:03;;;;;;;7.47;1.90;;;;;;;;;;4996416;28;20026;-26
2022/11/18 06:33:29;;;;;;;13.27;2.30;;;;;;;;;;4995803;28;20030;-26
2022/11/18 06:35:56;;;;;;;6.05;2.05;;;;;;;;;;4996904;28;20108;-25
2022/11/18 06:38:24;;;;;;;6.72;2.20;;;;;;;;;;4996582;28;20074;-26
2022/11/18 06:40:51;;;;;;;5.68;1.95;;;;;;;;;;4997084;28;20046;-26
2022/11/18 06:48:48;;;;;;;8.85;2.50;;;;;;;;;;4996627;28;20053;-25
2022/11/18 06:51:14;;;;;;;4.30;2.85;;;;;;;;;;4996271;28;20031;-25
2022/11/18 06:53:40;;;;;;;6.57;2.30;;;;;;;;;;4996130;28;20030;-26
2022/11/18 06:56:08;;;;;;;7.78;2.70;;;;;;;;;;4996156;28;20041;-26
2022/11/18 06:58:34;;;;;;;6.95;2.30;;;;;;;;;;4995829;28;20038;-25
2022/11/18 07:01:11;;;;;;;6.47;1.58;;;;;;;;;;4996164;28;20442;-26
2022/11/18 07:03:37;;;;;;;8.55;2.75;;;;;;;;;;4995673;28;20050;-26
2022/11/18 07:06:03;;;;;;;7.25;2.33;;;;;;;;;;4996142;28;20026;-38
2022/11/18 07:08:29;;;;;;;6.45;2.13;;;;;;;;;;4995938;28;20040;-26
2022/11/18 07:10:56;;;;;;;11.13;2.83;;;;;;;;;;4996009;28;20023;-25
2022/11/18 07:13:22;;;;;;;9.10;2.10;;;;;;;;;;4996259;28;20084;-26
2022/11/18 07:15:48;;;;;;;5.05;1.88;;;;;;;;;;4995948;28;20391;-26
2022/11/18 07:18:14;;;;;;;7.43;2.28;;;;;;;;;;4995447;28;20113;-26
2022/11/18 07:20:40;;;;;;;4.53;1.90;;;;;;;;;;4995779;28;20105;-26
2022/11/18 07:23:06;;;;;;;6.85;1.95;;;;;;;;;;4995436;28;20022;-25
2022/11/18 07:25:32;;;;;;;6.15;1.90;;;;;;;;;;4994493;28;20413;-26
2022/11/18 07:27:58;;;;;;;5.70;1.92;;;;;;;;;;4995113;28;20442;-26
2022/11/18 07:30:25;;;;;;;10.75;2.22;;;;;;;;;;4995733;28;20065;-25
2022/11/18 07:32:51;;;;;;;18.13;2.90;;;;;;;;;;4995266;28;20035;-25
2022/11/18 07:35:17;;;;;;;10.57;2.30;;;;;;;;;;4995326;28;20057;-25
2022/11/18 07:37:44;;;;;;;5.82;2.17;;;;;;;;;;4995616;28;20057;-25
2022/11/18 07:40:10;;;;;;;9.68;1.70;;;;;;;;;;4995562;28;20034;-25
2022/11/18 07:42:41;;;;;;;5.72;1.83;;;;;;;;;;4995508;28;20026;-26
2022/11/18 07:45:11;;;;;;;3.67;2.03;;;;;;;;;;4995549;28;20370;-25
2022/11/18 07:47:37;;;;;;;9.70;2.78;;;;;;;;;;4995475;28;20112;-26
2022/11/18 07:50:04;;;;;;;12.27;2.47;;;;;;;;;;4995210;28;20334;-25
2022/11/18 07:52:30;;;;;;;10.40;2.05;;;;;;;;;;4995068;28;20036;-25
2022/11/18 07:54:56;;;;;;;6.10;2.35;;;;;;;;;;4995084;28;20050;-25
2022/11/18 07:57:22;;;;;;;7.43;2.47;;;;;;;;;;4995346;28;20475;-25
2022/11/18 07:59:49;;;;;;;9.10;2.70;;;;;;;;;;4995474;28;20433;-26
2022/11/18 08:02:15;;;;;;;7.75;2.10;;;;;;;;;;4994719;28;20041;-25
2022/11/18 08:04:41;;;;;;;9.73;2.33;;;;;;;;;;4995382;28;20034;-26
2022/11/18 08:07:10;;;;;;;7.05;2.00;;;;;;;;;;4995027;28;20080;-26
2022/11/18 08:09:36;;;;;;;10.88;2.05;;;;;;;;;;4994096;28;20037;-26
2022/11/18 08:12:03;;;;;;;14.40;2.35;;;;;;;;;;4997602;28;20038;-28
2022/11/18 08:14:29;;;;;;;5.68;2.40;;;;;;;;;;4998244;28;20034;-26
2022/11/18 08:16:55;;;;;;;5.88;2.47;;;;;;;;;;4998956;28;20035;-25
2022/11/18 08:19:21;;;;;;;14.40;2.83;;;;;;;;;;4997899;28;20520;-26
2022/11/18 08:21:47;;;;;;;7.95;2.10;;;;;;;;;;4999367;28;20369;-25
2022/11/18 08:24:13;;;;;;;12.63;3.40;;;;;;;;;;4999129;28;20031;-25
2022/11/18 08:26:40;;;;;;;5.70;3.03;;;;;;;;;;4999175;28;20022;-25
2022/11/18 08:29:06;;;;;;;7.63;2.38;;;;;;;;;;4999065;28;20022;-26
2022/11/18 08:31:32;;;;;;;7.60;2.00;;;;;;;;;;4998788;28;20096;-25
2022/11/18 08:33:59;;;;;;;10.52;2.22;;;;;;;;;;4999141;28;20041;-26
2022/11/18 08:36:27;;;;;;;6.15;2.97;;;;;;;;;;4999201;28;20387;-25
2022/11/18 08:38:55;;;;;;;9.05;2.20;;;;;;;;;;4999062;28;20026;-25
2022/11/18 08:41:28;;;;;;;5.30;2.13;;;;;;;;;;4998869;28;20121;-25
2022/11/18 08:43:54;;;;;;;7.28;2.55;;;;;;;;;;4998665;28;20374;-26
2022/11/18 08:46:20;;;;;;;10.55;2.65;;;;;;;;;;4998522;28;20105;-25
2022/11/18 08:48:46;;;;;;;8.05;2.58;;;;;;;;;;4998485;28;20105;-25
2022/11/18 08:51:13;;;;;;;10.00;3.38;;;;;;;;;;4998723;28;20416;-25
2022/11/18 08:53:39;;;;;;;6.82;2.53;;;;;;;;;;4997360;28;20414;-25
2022/11/18 08:56:05;;;;;;;8.32;2.80;;;;;;;;;;4998409;28;20131;-26
2022/11/18 08:58:31;;;;;;;11.00;2.13;;;;;;;;;;4998315;28;20035;-25
2022/11/18 09:00:58;;;;;;;16.73;4.35;;;;;;;;;;4998247;28;20088;-25
2022/11/18 09:03:24;;;;;;;9.88;2.30;;;;;;;;;;4997938;28;20047;-26
2022/11/18 09:05:50;;;;;;;6.13;3.13;;;;;;;;;;4998410;28;20391;-26
2022/11/18 09:08:16;;;;;;;10.02;2.10;;;;;;;;;;4998158;28;20037;-26
2022/11/18 09:10:42;;;;;;;12.43;3.97;;;;;;;;;;4998065;28;20053;-26
2022/11/18 09:13:09;;;;;;;6.78;1.90;;;;;;;;;;4997058;28;20023;-25
2022/11/18 09:15:35;;;;;;;9.10;2.53;;;;;;;;;;4998609;28;20049;-32
2022/11/18 09:18:01;;;;;;;10.70;2.15;;;;;;;;;;4998279;28;20022;-25
2022/11/18 09:20:27;;;;;;;10.68;3.17;;;;;;;;;;4997791;28;20177;-26
2022/11/18 09:22:53;;;;;;;9.20;2.20;;;;;;;;;;4997305;28;20026;-26
2022/11/18 09:25:19;;;;;;;6.72;2.10;;;;;;;;;;4996871;28;20081;-25
2022/11/18 09:27:46;;;;;;;10.52;2.30;;;;;;;;;;4997721;28;20102;-26
2022/11/18 09:30:13;;;;;;;9.68;1.83;;;;;;;;;;4997887;28;20034;-26
2022/11/18 09:32:39;;;;;;;10.57;2.00;;;;;;;;;;4997511;28;20022;-26
2022/11/18 09:35:05;;;;;;;8.15;2.50;;;;;;;;;;4997692;28;20034;-26
2022/11/18 09:37:33;;;;;;;10.38;2.88;;;;;;;;;;4997845;28;20093;-27
2022/11/18 09:39:59;;;;;;;5.05;2.17;;;;;;;;;;4996435;28;20038;-26
2022/11/18 09:42:44;;;;;;;11.68;2.88;;;;;;;;;;4997634;28;20080;-27
2022/11/18 09:45:10;;;;;;;6.72;2.28;;;;;;;;;;4997695;28;20390;-26
2022/11/18 09:47:36;;;;;;;13.18;2.90;;;;;;;;;;4997693;28;20038;-26
2022/11/18 09:50:02;;;;;;;14.23;2.53;;;;;;;;;;4997376;28;20339;-26
2022/11/18 09:52:30;;;;;;;12.10;2.92;;;;;;;;;;4997372;28;20041;-26
2022/11/18 09:54:58;;;;;;;6.88;2.58;;;;;;;;;;4997534;28;20026;-26
2022/11/18 09:57:45;;;;;;;10.88;3.65;;;;;;;;;;4996204;28;20437;-26
2022/11/18 10:00:20;;;;;;;10.00;2.33;;;;;;;;;;4997008;28;20049;-26
2022/11/18 10:02:49;;;;;;;4.75;1.63;;;;;;;;;;4997016;28;20051;-26
2022/11/18 10:05:18;;;;;;;8.27;2.17;;;;;;;;;;4996988;28;20022;-28
2022/11/18 10:08:05;;;;;;;11.50;3.25;;;;;;;;;;4997068;28;20030;-28
2022/11/18 10:10:51;;;;;;;10.52;3.55;;;;;;;;;;4996865;28;20092;-28
2022/11/18 10:13:36;;;;;;;5.50;1.90;;;;;;;;;;4997067;28;20160;-28
2022/11/18 10:16:10;;;;;;;8.15;2.35;;;;;;;;;;4996829;28;20110;-28
2022/11/18 10:18:45;;;;;;;10.15;2.50;;;;;;;;;;4997336;28;20041;-27
2022/11/18 10:21:30;;;;;;;9.55;2.30;;;;;;;;;;4996885;28;20037;-28
2022/11/18 10:24:02;;;;;;;10.88;2.38;;;;;;;;;;4996440;28;20110;-26
2022/11/18 10:26:36;;;;;;;5.53;2.08;;;;;;;;;;4997202;28;20113;-25
2022/11/18 10:29:02;;;;;;;13.25;2.53;;;;;;;;;;4996708;28;20077;-25
2022/11/18 10:31:28;;;;;;;11.65;2.42;;;;;;;;;;4995674;28;20053;-25
2022/11/18 10:33:59;;;;;;;11.70;3.03;;;;;;;;;;4995671;28;20409;-26
2022/11/18 10:36:29;;;;;;;11.53;2.50;;;;;;;;;;4996669;28;20369;-25
2022/11/18 10:39:12;;;;;;;9.55;2.22;;;;;;;;;;4996434;28;20030;-25
2022/11/18 10:41:41;;;;;;;6.90;2.38;;;;;;;;;;4996710;28;20034;-25
2022/11/18 10:44:26;;;;;;;11.70;2.63;;;;;;;;;;4996272;28;20022;-26
2022/11/18 10:46:52;;;;;;;10.05;2.13;;;;;;;;;;4996746;28;20033;-26
2022/11/18 10:49:18;;;;;;;7.82;2.33;;;;;;;;;;4996265;28;20026;-24
2022/11/18 10:51:46;;;;;;;10.93;2.20;;;;;;;;;;4996106;28;20446;-25
2022/11/18 10:54:12;;;;;;;10.73;2.63;;;;;;;;;;4996420;28;20030;-25
2022/11/18 10:57:01;;;;;;;23.83;4.40;;;;;;;;;;4996476;28;20027;-25
2022/11/18 10:59:33;;;;;;;13.85;3.08;;;;;;;;;;4995122;28;20035;-25
2022/11/18 11:02:19;;;;;;;7.47;2.53;;;;;;;;;;4995041;28;20026;-25
2022/11/18 11:04:46;;;;;;;16.25;2.83;;;;;;;;;;4996528;28;20038;-26
2022/11/18 11:07:22;;;;;;;11.55;2.42;;;;;;;;;;4996257;28;20457;-25
2022/11/18 11:09:59;;;;;;;10.90;2.65;;;;;;;;;;4996326;28;20477;-25
2022/11/18 11:12:27;;;;;;;17.10;2.60;;;;;;;;;;4995831;28;20365;-25
2022/11/18 11:14:55;;;;;;;7.68;2.30;;;;;;;;;;4995547;28;20030;-25
2022/11/18 11:17:26;;;;;;;9.25;2.45;;;;;;;;;;4995508;28;20038;-24
2022/11/18 11:20:13;;;;;;;12.00;2.55;;;;;;;;;;4995719;28;20026;-25
2022/11/18 11:22:40;;;;;;;9.50;2.78;;;;;;;;;;4995431;28;20113;-25
2022/11/18 11:25:19;;;;;;;11.35;2.42;;;;;;;;;;4995614;28;20108;-26
2022/11/18 11:27:49;;;;;;;4.57;2.28;;;;;;;;;;4995573;28;20026;-26
2022/11/18 11:30:19;;;;;;;9.40;2.25;;;;;;;;;;4995309;28;20369;-25
2022/11/18 11:32:57;;;;;;;5.40;2.00;;;;;;;;;;4995237;28;20101;-25
2022/11/18 11:35:34;;;;;;;9.27;2.38;;;;;;;;;;4995708;28;20030;-25
2022/11/18 11:38:03;;;;;;;15.65;3.35;;;;;;;;;;4995862;28;20034;-25
2022/11/18 11:40:49;;;;;;;9.60;2.88;;;;;;;;;;4995043;28;20109;-26
2022/11/18 11:43:21;;;;;;;13.43;2.67;;;;;;;;;;4995569;28;20417;-25
2022/11/18 11:46:06;;;;;;;17.05;2.42;;;;;;;;;;4994081;28;20034;-25
2022/11/18 11:48:50;;;;;;;14.55;4.07;;;;;;;;;;4995241;28;20027;-25
2022/11/18 11:51:36;;;;;;;15.65;3.17;;;;;;;;;;4995454;28;20035;-25
2022/11/18 11:54:09;;;;;;;11.05;2.58;;;;;;;;;;4995478;28;20037;-25
2022/11/18 11:56:45;;;;;;;8.55;2.35;;;;;;;;;;4995657;28;20045;-25
2022/11/18 11:59:14;;;;;;;10.65;2.58;;;;;;;;;;4994280;28;20064;-24
2022/11/18 12:01:44;;;;;;;13.52;2.90;;;;;;;;;;4995811;28;20096;-25
2022/11/18 12:04:35;;;;;;;9.15;2.75;;;;;;;;;;4994979;28;20078;-25
2022/11/18 12:07:03;;;;;;;10.07;2.85;;;;;;;;;;4994567;28;20081;-25
2022/11/18 12:09:32;;;;;;;10.07;3.58;;;;;;;;;;4995537;28;20030;-25
2022/11/18 12:12:33;;;;;;;16.38;2.75;;;;;;;;;;4995274;28;20109;-25
2022/11/18 12:14:57;;;;;;;16.83;3.75;;;;;;;;;;4994978;28;20022;-26
2022/11/18 12:17:36;;;;;;;11.13;2.20;;;;;;;;;;4995056;28;20022;-26
2022/11/18 12:20:22;;;;;;;10.65;2.85;;;;;;;;;;4995231;28;20433;-26
2022/11/18 12:23:07;;;;;;;12.95;2.92;;;;;;;;;;4993949;28;20061;-25
2022/11/18 12:25:45;;;;;;;7.65;2.67;;;;;;;;;;4995316;28;20038;-25
2022/11/18 12:28:22;;;;;;;18.02;5.78;;;;;;;;;;4994913;28;20105;-25
2022/11/18 12:30:48;;;;;;;17.90;5.03;;;;;;;;;;4995441;28;20030;-25
2022/11/18 12:33:16;;;;;;;9.82;2.60;;;;;;;;;;4993929;28;20026;-26
2022/11/18 12:35:47;;;;;;;10.07;2.28;;;;;;;;;;4994894;28;20549;-25
2022/11/18 12:38:13;;;;;;;;;;;;;;;;;;4995305;28;20050;-25
2022/11/18 12:40:43;;;;;;;16.30;2.90;;;;;;;;;;4994970;28;19913;-25
2022/11/18 12:45:57;;;;;;;20.85;3.45;;;;;;;;;;4994866;28;20034;-25
2022/11/18 12:48:23;;;;;;;14.45;3.15;;;;;;;;;;4995290;28;20105;-25
2022/11/18 12:50:51;;;;;;;10.70;2.97;;;;;;;;;;4994783;28;20369;-25
2022/11/18 12:53:32;;;;;;;9.40;2.63;;;;;;;;;;4993694;28;20445;-25
2022/11/18 12:55:58;;;;;;;11.35;3.47;;;;;;;;;;4995040;28;20034;-25
2022/11/18 12:58:25;;;;;;;15.45;2.78;;;;;;;;;;4997624;28;20023;-26
2022/11/18 13:01:05;;;;;;;11.52;3.08;;;;;;;;;;4998302;28;20393;-26
2022/11/18 13:03:32;;;;;;;10.57;2.40;;;;;;;;;;4998179;28;20044;-26
2022/11/18 13:06:01;;;;;;;10.73;2.47;;;;;;;;;;4998713;28;20014;-26
2022/11/18 13:08:28;;;;;;;7.10;1.95;;;;;;;;;;4998243;28;20045;-26
2022/11/18 13:11:43;;;;;;;21.85;3.15;;;;;;;;;;4998476;28;20402;-27
2022/11/18 13:13:41;;;;;;;17.17;2.50;;;;;;;;;;4997901;28;20034;-26
2022/11/18 13:19:04;;;;;;;18.60;3.63;;;;;;;;;;4998133;28;20121;-27
2022/11/18 13:24:16;;;;;;;22.45;3.20;;;;;;;;;;4998278;28;20044;-26
2022/11/18 13:26:43;;;;;;;17.58;2.90;;;;;;;;;;4998269;28;20359;-26
2022/11/18 13:29:15;;;;;;;15.13;3.00;;;;;;;;;;4997891;28;20022;-26
2022/11/18 13:31:47;;;;;;;13.93;2.65;;;;;;;;;;4997884;28;20439;-26
2022/11/18 13:34:21;;;;;;;13.20;3.13;;;;;;;;;;4997859;28;20113;-24
2022/11/18 13:36:48;;;;;;;10.27;2.65;;;;;;;;;;4997983;28;20034;-26
2022/11/18 13:39:22;;;;;;;16.27;2.50;;;;;;;;;;4997921;28;20038;-26
2022/11/18 13:42:02;;;;;;;14.30;2.95;;;;;;;;;;4997815;28;20030;-26
2022/11/18 13:44:30;;;;;;;9.35;3.33;;;;;;;;;;4997817;28;20124;-26
2022/11/18 13:47:04;;;;;;;16.48;3.30;;;;;;;;;;4997728;28;20091;-25
2022/11/18 13:49:51;;;;;;;7.75;2.28;;;;;;;;;;4997658;28;20033;-26
2022/11/18 13:52:20;;;;;;;10.95;2.67;;;;;;;;;;4997848;28;20050;-25
2022/11/18 13:54:46;;;;;;;24.02;3.15;;;;;;;;;;4997561;28;20030;-26
2022/11/18 13:57:17;;;;;;;16.73;2.90;;;;;;;;;;4997528;28;20030;-26
2022/11/18 13:59:44;;;;;;;8.70;2.90;;;;;;;;;;4997623;28;20030;-26
2022/11/18 14:02:12;;;;;;;13.95;2.75;;;;;;;;;;4997217;28;20019;-26
2022/11/18 14:04:47;;;;;;;13.70;3.28;;;;;;;;;;4997786;28;20461;-26
2022/11/18 14:07:24;;;;;;;18.65;3.88;;;;;;;;;;4997170;28;20034;-26
2022/11/18 14:10:07;;;;;;;15.27;3.95;;;;;;;;;;4995950;28;20030;-26
2022/11/18 14:12:34;;;;;;;12.52;2.88;;;;;;;;;;4997218;28;20039;-26
2022/11/18 14:15:19;;;;;;;13.20;2.75;;;;;;;;;;4995969;28;20034;-26
2022/11/18 14:17:50;;;;;;;12.68;2.78;;;;;;;;;;4996933;28;20068;-26
2022/11/18 14:20:17;;;;;;;15.07;3.03;;;;;;;;;;4997133;28;20035;-25
2022/11/18 14:22:43;;;;;;;8.93;2.80;;;;;;;;;;4995780;28;20042;-25
2022/11/18 14:25:15;;;;;;;11.35;3.55;;;;;;;;;;4996837;28;20050;-25
2022/11/18 14:27:43;;;;;;;17.23;3.47;;;;;;;;;;4996811;28;20425;-26
2022/11/18 14:30:28;;;;;;;12.80;2.33;;;;;;;;;;4997268;28;20398;-25
2022/11/18 14:33:15;;;;;;;15.48;5.22;;;;;;;;;;4996589;28;20097;-25
2022/11/18 14:35:42;;;;;;;13.23;2.47;;;;;;;;;;4996565;28;20062;-27
2022/11/18 14:38:12;;;;;;;24.38;2.33;;;;;;;;;;4996594;28;20041;-26
2022/11/18 14:40:38;;;;;;;10.38;2.47;;;;;;;;;;4996695;28;20064;-26
2022/11/18 14:43:04;;;;;;;16.45;4.57;;;;;;;;;;4996656;28;20113;-26
2022/11/18 14:45:31;;;;;;;13.52;2.75;;;;;;;;;;4996480;28;20019;-26
2022/11/18 14:47:57;;;;;;;10.73;2.95;;;;;;;;;;4996668;28;20369;-26
2022/11/18 14:50:23;;;;;;;15.88;3.78;;;;;;;;;;4997363;28;20069;-26
2022/11/18 14:52:50;;;;;;;14.55;3.50;;;;;;;;;;4996403;28;20048;-26
2022/11/18 14:55:16;;;;;;;6.85;2.70;;;;;;;;;;4996533;28;20354;-26
2022/11/18 14:57:42;;;;;;;14.60;5.10;;;;;;;;;;4996417;28;20365;-26
2022/11/18 15:00:12;;;;;;;17.27;4.95;;;;;;;;;;4996440;28;20022;-26
2022/11/18 15:02:38;;;;;;;9.82;3.15;;;;;;;;;;4995764;28;20136;-26
2022/11/18 15:05:04;;;;;;;13.68;3.55;;;;;;;;;;4996374;28;20030;-26
2022/11/18 15:07:30;;;;;;;10.30;2.72;;;;;;;;;;4996323;28;20478;-26
2022/11/18 15:09:57;;;;;;;16.95;3.67;;;;;;;;;;4995065;28;20481;-27
2022/11/18 15:12:23;;;;;;;12.23;2.78;;;;;;;;;;4995847;28;20080;-26
2022/11/18 15:14:49;;;;;;;10.25;3.00;;;;;;;;;;4996070;28;20038;-27
2022/11/18 15:17:15;;;;;;;14.05;2.75;;;;;;;;;;4994830;28;20030;-26
2022/11/18 15:19:41;;;;;;;24.25;4.35;;;;;;;;;;4995273;28;20042;-26